OIBA

Details ICAO OIBA
Name ABUMUSA ISLAND
Region Iran
Timezone Asia/Dubai (UTC+4.0)
Plans Departing 5
Arriving 5
Stats Elevation 23 ft / 7 m (AMSL)
Location 25.875740° 55.032995°
Runways 1
Magnetic Variation 2.195° E
Sunrise 2017-12-17 03:01:32 UTC / 2017-12-17 07:01:32 Local
Sunset 2017-12-17 13:33:02 UTC / 2017-12-17 17:33:02 Local
Advertisement - Login to hide

Runways

ID Width Length Bearing (true) Bearing (mag) Surface Threshold Offset Overrun Length
08 148 ft / 45 m 9,783 ft / 2,982 m 83.35° 81.15° Asphalt 860 ft / 262 m 560 ft / 171 m
26 148 ft / 45 m 9,783 ft / 2,982 m 263.36° 261.16° Asphalt 940 ft / 287 m 560 ft / 171 m

Map

Weather


0- 5 10 15 20 25 30 35+ Temperature / ° C

Clouds and Precipitation
Forecast for 2017-12-17 12:00 UTC. Updated an hour ago

Ground ~20,000 ft ~40,000 ft Winds

METAR

OIBA 171000Z 06008KT 5000 RA FEW025CB OVC100 15/15 Q1018

TAF

Not found

Frequencies

Tower 122.90 MHz INFO
Tower 121.90 MHz INFO
Warning: Do not use this data for real-world aviation or navigation. No guarantee of current accuracy is given.